MYGF METAR and TAF weather

Enter ICAO airport designator
Station Type Date Time Source
MYGF METAR 2019/04/25 12:00 UTC NOAA

MYGF 251200Z 10005KT 9999 BKN022 BKN250 22/20 A3003


Station Type Date Time Source
MYGF Decoded METAR 2019/04/25 12:00 UTC NOAA

Freeport, Grand Bahama, Bahamas, The (MYGF) 26-33N 078-42W 11M
Apr 25, 2019 - 08:00 AM EDT / 2019.04.25 1200 UTC
Wind: from the E (100 degrees) at 6 MPH (5 KT):0
Visibility: greater than 7 mile(s):0
Sky conditions: mostly cloudy
Temperature: 71 F (22 C)
Dew Point: 68 F (20 C)
Relative Humidity: 88%
Pressure (altimeter): 30.03 in. Hg (1016 hPa)
ob: MYGF 251200Z 10005KT 9999 BKN022 BKN250 22/20 A3003
cycle: 12

Station Type Date Time Source
MYGF TAF 2019/04/25 12:40 UTC NOAA

MYGF 251045Z 2512/2612 12010KT 9999 SCT025 SCT040 PROB40
TEMPO 2518/2600 15006KT 9000 SHRA BKN015

Example: see airport list